Sea-land Endurance — V7HX3 — position and weather

sailwx.info

Track history (hours):
 
Tides and Currents Weather Stations Pressure Air Temp Water Temp Dewpoint Dewpoint Depression Visibility Wind Speed Wind Dir Waves Ship Positions

Sea-land Endurance

Last reported at 2018-Feb-23 22:22 UTC. Time now 2018-Feb-25 12:12 UTC.
Position N 36°33' E 014°01'.

Type: Cargo ship. MMSI: 538002326.

Date/timePositionNaut miles runAvg speedWind from/ knotsBaromVisibWave heightAir tempDewpointWater temp
2018-Feb-23 22:22N 36°33' E 014°01'411.6
2018-Feb-23 22:00N 36°32' E 014°07'611.7
2018-Feb-23 21:30N 36°30' E 014°13'611.8
2018-Feb-23 21:00N 36°28' E 014°21'611.3
2018-Feb-23 20:30N 36°27' E 014°27'611.2
2018-Feb-23 20:00N 36°26' E 014°34'610.8
2018-Feb-23 19:29N 36°24' E 014°41'  
2018-Feb-18 22:34N 37°20' E 015°34'513.2
2018-Feb-18 22:11N 37°23' E 015°39'213.3
2018-Feb-18 22:00N 37°25' E 015°41'812.9
2018-Feb-18 21:23N 37°30' E 015°48'511.9
2018-Feb-18 21:00N 37°34' E 015°52'612.1
2018-Feb-18 20:30N 37°38' E 015°57'712.5
2018-Feb-18 19:57N 37°43' E 016°03'16612.0
2018-Feb-18 06:08N 39°43' E 018°30'210.8
2018-Feb-18 05:56N 39°44' E 018°32'510.9
2018-Feb-18 05:31N 39°49' E 018°35'611.2
2018-Feb-18 05:01N 39°54' E 018°37'611.4
2018-Feb-18 04:31N 39°59' E 018°39'4010.6
2018-Feb-18 00:42N 40°39' E 018°27'311.5
2018-Feb-18 00:24N 40°42' E 018°26'811.5
2018-Feb-17 23:42N 40°48' E 018°19'911.3
2018-Feb-17 22:55N 40°54' E 018°10'711.5
2018-Feb-17 22:17N 40°59' E 018°03'311.4
2018-Feb-17 22:00N 41°01' E 017°60'711.7
2018-Feb-17 21:23N 41°06' E 017°52'511.7
2018-Feb-17 20:55N 41°09' E 017°47'511.6
2018-Feb-17 20:29N 41°13' E 017°42'711.4
2018-Feb-17 19:53N 41°17' E 017°35'411.4
2018-Feb-17 19:30N 41°20' E 017°31'26112.1
2018-Feb-16 21:52N 44°35' E 013°34'512.5
2018-Feb-16 21:31N 44°39' E 013°31'612.3
2018-Feb-16 21:00N 44°44' E 013°26'612.3
2018-Feb-16 20:31N 44°49' E 013°21'612.3
2018-Feb-16 20:00N 44°55' E 013°17'612.2
2018-Feb-16 19:30N 44°60' E 013°12'812.1
2018-Feb-16 18:50N 45°06' E 013°05'411.9
2018-Feb-16 18:31N 45°10' E 013°03'612.2
2018-Feb-16 18:00N 45°16' E 013°01'612.2
2018-Feb-16 17:30N 45°22' E 012°59'510.4
2018-Feb-16 17:00N 45°26' E 013°03'612.3
2018-Feb-16 16:30N 45°30' E 013°10'612.2
2018-Feb-16 16:00N 45°33' E 013°17'612.4
2018-Feb-16 15:30N 45°36' E 013°26'612.3
2018-Feb-16 15:01N 45°38' E 013°34'611.3
2018-Feb-16 14:30N 45°35' E 013°41'3 0.6
2018-Feb-16 10:01N 45°34' E 013°44'0 0.0
2018-Feb-15 17:37N 45°34' E 013°44'0 0.0
2018-Feb-15 17:16N 45°34' E 013°44'0 0.0
2018-Feb-15 10:52N 45°34' E 013°44'0 0.0
2018-Feb-15 10:28N 45°34' E 013°44'0 0.0
2018-Feb-15 08:55N 45°34' E 013°44'0 0.0
2018-Feb-15 07:34N 45°34' E 013°44'0 0.0
2018-Feb-15 07:28N 45°34' E 013°44'0 0.0
2018-Feb-15 06:55N 45°34' E 013°44'0 0.0
2018-Feb-15 06:19N 45°34' E 013°44'0 0.0
2018-Feb-15 05:55N 45°34' E 013°44'0 0.0
2018-Feb-15 05:28N 45°34' E 013°44'0 0.0
2018-Feb-15 04:55N 45°34' E 013°44'0 0.0
2018-Feb-15 04:28N 45°34' E 013°44'0 0.0
2018-Feb-15 03:52N 45°34' E 013°44'0 0.0
2018-Feb-15 03:28N 45°34' E 013°44'0 0.0
2018-Feb-15 02:58N 45°34' E 013°44'0 0.0
2018-Feb-15 02:28N 45°34' E 013°44'0 0.0
2018-Feb-15 01:58N 45°34' E 013°44'0 0.0
2018-Feb-15 01:25N 45°34' E 013°44'0 0.0
2018-Feb-15 00:55N 45°34' E 013°44'0 0.0
2018-Feb-15 00:19N 45°34' E 013°44'0 0.0
2018-Feb-14 23:58N 45°34' E 013°44'0 0.0
2018-Feb-14 23:22N 45°34' E 013°44'0 0.0
2018-Feb-14 22:58N 45°34' E 013°44'0 0.0
2018-Feb-14 22:28N 45°34' E 013°44'0 0.0
2018-Feb-14 21:58N 45°34' E 013°44'0 0.0
2018-Feb-14 21:28N 45°34' E 013°44'0 0.0
2018-Feb-14 20:58N 45°34' E 013°44'0 0.0
2018-Feb-14 20:28N 45°34' E 013°44'0 0.0
2018-Feb-14 19:52N 45°34' E 013°44'0 0.0
2018-Feb-14 19:28N 45°34' E 013°44'0 0.0
2018-Feb-14 18:58N 45°34' E 013°44'0 0.0
2018-Feb-14 18:28N 45°34' E 013°44'0 0.0
2018-Feb-14 17:58N 45°34' E 013°44'0 0.0
2018-Feb-14 17:22N 45°34' E 013°44'0 0.0
2018-Feb-14 16:58N 45°34' E 013°44'0 0.0
2018-Feb-14 16:28N 45°34' E 013°44'0 0.0
2018-Feb-14 15:58N 45°34' E 013°44'0 0.0
2018-Feb-14 15:22N 45°34' E 013°44'0 0.0
2018-Feb-14 14:58N 45°34' E 013°44'0 0.0
2018-Feb-14 14:28N 45°34' E 013°44'0 0.0
2018-Feb-14 13:58N 45°34' E 013°44'0 0.0
2018-Feb-14 13:19N 45°34' E 013°44'0 0.0
2018-Feb-14 12:55N 45°34' E 013°44'0 0.0
2018-Feb-14 12:22N 45°34' E 013°44'0 0.0
2018-Feb-14 11:55N 45°34' E 013°44'0 0.0
2018-Feb-14 11:28N 45°34' E 013°44'0 0.0
2018-Feb-14 10:58N 45°34' E 013°44'0 0.0
2018-Feb-14 10:28N 45°34' E 013°44'0 0.1
2018-Feb-14 10:00N 45°34' E 013°44'1 1.0
2018-Feb-14 09:30N 45°34' E 013°43'3 5.3
2018-Feb-14 09:00N 45°34' E 013°40'5 9.9
2018-Feb-14 08:30N 45°34' E 013°33'612.2
2018-Feb-14 08:00N 45°32' E 013°25'611.8
2018-Feb-14 07:30N 45°28' E 013°18'3 7.0
2018-Feb-14 07:00N 45°26' E 013°15'612.0
2018-Feb-14 06:30N 45°20' E 013°11'713.1
2018-Feb-14 06:00N 45°14' E 013°13'713.3
2018-Feb-14 05:30N 45°07' E 013°15'713.4
2018-Feb-14 05:00N 45°01' E 013°18'713.4
2018-Feb-14 04:31N 44°55' E 013°23'713.2
2018-Feb-14 04:01N 44°50' E 013°28'713.3
2018-Feb-14 03:30N 44°44' E 013°33'713.3
2018-Feb-14 03:00N 44°39' E 013°39'713.3
2018-Feb-14 02:30N 44°33' E 013°44'713.2
2018-Feb-14 02:00N 44°28' E 013°49'713.1
2018-Feb-14 01:30N 44°22' E 013°54'  
Track history (hours):
 
Tides and Currents Weather Stations Pressure Air Temp Water Temp Dewpoint Dewpoint Depression Visibility Wind Speed Wind Dir Waves Ship Positions

Sea-land Endurance

Last reported at 2018-Feb-23 22:22 UTC. Time now 2018-Feb-25 12:12 UTC.
Position N 36°33' E 014°01'.

Type: Cargo ship. MMSI: 538002326.

Date/timePositionNaut miles runAvg speedWind from/ knotsBaromVisibWave heightAir tempDewpointWater temp
2018-Feb-23 22:22N 36°33' E 014°01'411.6
2018-Feb-23 22:00N 36°32' E 014°07'611.7
2018-Feb-23 21:30N 36°30' E 014°13'611.8
2018-Feb-23 21:00N 36°28' E 014°21'611.3
2018-Feb-23 20:30N 36°27' E 014°27'611.2
2018-Feb-23 20:00N 36°26' E 014°34'610.8
2018-Feb-23 19:29N 36°24' E 014°41'  
2018-Feb-18 22:34N 37°20' E 015°34'513.2
2018-Feb-18 22:11N 37°23' E 015°39'213.3
2018-Feb-18 22:00N 37°25' E 015°41'812.9
2018-Feb-18 21:23N 37°30' E 015°48'511.9
2018-Feb-18 21:00N 37°34' E 015°52'612.1
2018-Feb-18 20:30N 37°38' E 015°57'712.5
2018-Feb-18 19:57N 37°43' E 016°03'16612.0
2018-Feb-18 06:08N 39°43' E 018°30'210.8
2018-Feb-18 05:56N 39°44' E 018°32'510.9
2018-Feb-18 05:31N 39°49' E 018°35'611.2
2018-Feb-18 05:01N 39°54' E 018°37'611.4
2018-Feb-18 04:31N 39°59' E 018°39'4010.6
2018-Feb-18 00:42N 40°39' E 018°27'311.5
2018-Feb-18 00:24N 40°42' E 018°26'811.5
2018-Feb-17 23:42N 40°48' E 018°19'911.3
2018-Feb-17 22:55N 40°54' E 018°10'711.5
2018-Feb-17 22:17N 40°59' E 018°03'311.4
2018-Feb-17 22:00N 41°01' E 017°60'711.7
2018-Feb-17 21:23N 41°06' E 017°52'511.7
2018-Feb-17 20:55N 41°09' E 017°47'511.6
2018-Feb-17 20:29N 41°13' E 017°42'711.4
2018-Feb-17 19:53N 41°17' E 017°35'411.4
2018-Feb-17 19:30N 41°20' E 017°31'26112.1
2018-Feb-16 21:52N 44°35' E 013°34'512.5
2018-Feb-16 21:31N 44°39' E 013°31'612.3
2018-Feb-16 21:00N 44°44' E 013°26'612.3
2018-Feb-16 20:31N 44°49' E 013°21'612.3
2018-Feb-16 20:00N 44°55' E 013°17'612.2
2018-Feb-16 19:30N 44°60' E 013°12'812.1
2018-Feb-16 18:50N 45°06' E 013°05'411.9
2018-Feb-16 18:31N 45°10' E 013°03'612.2
2018-Feb-16 18:00N 45°16' E 013°01'612.2
2018-Feb-16 17:30N 45°22' E 012°59'510.4
2018-Feb-16 17:00N 45°26' E 013°03'612.3
2018-Feb-16 16:30N 45°30' E 013°10'612.2
2018-Feb-16 16:00N 45°33' E 013°17'612.4
2018-Feb-16 15:30N 45°36' E 013°26'612.3
2018-Feb-16 15:01N 45°38' E 013°34'611.3
2018-Feb-16 14:30N 45°35' E 013°41'3 0.6
2018-Feb-16 10:01N 45°34' E 013°44'0 0.0
2018-Feb-15 17:37N 45°34' E 013°44'0 0.0
2018-Feb-15 17:16N 45°34' E 013°44'0 0.0
2018-Feb-15 10:52N 45°34' E 013°44'0 0.0
2018-Feb-15 10:28N 45°34' E 013°44'0 0.0
2018-Feb-15 08:55N 45°34' E 013°44'0 0.0
2018-Feb-15 07:34N 45°34' E 013°44'0 0.0
2018-Feb-15 07:28N 45°34' E 013°44'0 0.0
2018-Feb-15 06:55N 45°34' E 013°44'0 0.0
2018-Feb-15 06:19N 45°34' E 013°44'0 0.0
2018-Feb-15 05:55N 45°34' E 013°44'0 0.0
2018-Feb-15 05:28N 45°34' E 013°44'0 0.0
2018-Feb-15 04:55N 45°34' E 013°44'0 0.0
2018-Feb-15 04:28N 45°34' E 013°44'0 0.0
2018-Feb-15 03:52N 45°34' E 013°44'0 0.0
2018-Feb-15 03:28N 45°34' E 013°44'0 0.0
2018-Feb-15 02:58N 45°34' E 013°44'0 0.0
2018-Feb-15 02:28N 45°34' E 013°44'0 0.0
2018-Feb-15 01:58N 45°34' E 013°44'0 0.0
2018-Feb-15 01:25N 45°34' E 013°44'0 0.0
2018-Feb-15 00:55N 45°34' E 013°44'0 0.0
2018-Feb-15 00:19N 45°34' E 013°44'0 0.0
2018-Feb-14 23:58N 45°34' E 013°44'0 0.0
2018-Feb-14 23:22N 45°34' E 013°44'0 0.0
2018-Feb-14 22:58N 45°34' E 013°44'0 0.0
2018-Feb-14 22:28N 45°34' E 013°44'0 0.0
2018-Feb-14 21:58N 45°34' E 013°44'0 0.0
2018-Feb-14 21:28N 45°34' E 013°44'0 0.0
2018-Feb-14 20:58N 45°34' E 013°44'0 0.0
2018-Feb-14 20:28N 45°34' E 013°44'0 0.0
2018-Feb-14 19:52N 45°34' E 013°44'0 0.0
2018-Feb-14 19:28N 45°34' E 013°44'0 0.0
2018-Feb-14 18:58N 45°34' E 013°44'0 0.0
2018-Feb-14 18:28N 45°34' E 013°44'0 0.0
2018-Feb-14 17:58N 45°34' E 013°44'0 0.0
2018-Feb-14 17:22N 45°34' E 013°44'0 0.0
2018-Feb-14 16:58N 45°34' E 013°44'0 0.0
2018-Feb-14 16:28N 45°34' E 013°44'0 0.0
2018-Feb-14 15:58N 45°34' E 013°44'0 0.0
2018-Feb-14 15:22N 45°34' E 013°44'0 0.0
2018-Feb-14 14:58N 45°34' E 013°44'0 0.0
2018-Feb-14 14:28N 45°34' E 013°44'0 0.0
2018-Feb-14 13:58N 45°34' E 013°44'0 0.0
2018-Feb-14 13:19N 45°34' E 013°44'0 0.0
2018-Feb-14 12:55N 45°34' E 013°44'0 0.0
2018-Feb-14 12:22N 45°34' E 013°44'0 0.0
2018-Feb-14 11:55N 45°34' E 013°44'0 0.0
2018-Feb-14 11:28N 45°34' E 013°44'0 0.0
2018-Feb-14 10:58N 45°34' E 013°44'0 0.0
2018-Feb-14 10:28N 45°34' E 013°44'0 0.1
2018-Feb-14 10:00N 45°34' E 013°44'1 1.0
2018-Feb-14 09:30N 45°34' E 013°43'3 5.3
2018-Feb-14 09:00N 45°34' E 013°40'5 9.9
2018-Feb-14 08:30N 45°34' E 013°33'612.2
2018-Feb-14 08:00N 45°32' E 013°25'611.8
2018-Feb-14 07:30N 45°28' E 013°18'3 7.0
2018-Feb-14 07:00N 45°26' E 013°15'612.0
2018-Feb-14 06:30N 45°20' E 013°11'713.1
2018-Feb-14 06:00N 45°14' E 013°13'713.3
2018-Feb-14 05:30N 45°07' E 013°15'713.4
2018-Feb-14 05:00N 45°01' E 013°18'713.4
2018-Feb-14 04:31N 44°55' E 013°23'713.2
2018-Feb-14 04:01N 44°50' E 013°28'713.3
2018-Feb-14 03:30N 44°44' E 013°33'713.3
2018-Feb-14 03:00N 44°39' E 013°39'713.3
2018-Feb-14 02:30N 44°33' E 013°44'713.2
2018-Feb-14 02:00N 44°28' E 013°49'713.1
2018-Feb-14 01:30N 44°22' E 013°54'  

Dump ship's entire track history